createdAt,value
2019-05-11T00:01:44.763Z,10.11
2019-05-11T00:04:10.635Z,10.16
2019-05-11T00:06:36.505Z,10.20
2019-05-11T00:09:04.959Z,10.23
2019-05-11T00:11:30.817Z,10.19
2019-05-11T00:13:56.699Z,10.16
2019-05-11T00:16:23.394Z,10.10
2019-05-11T00:18:49.262Z,10.08
2019-05-11T00:21:15.115Z,10.11
2019-05-11T00:23:40.979Z,10.10
2019-05-11T00:26:06.846Z,10.11
2019-05-11T00:28:32.689Z,10.11
2019-05-11T00:30:58.549Z,10.06
2019-05-11T00:33:24.416Z,10.02
2019-05-11T00:35:50.304Z,10.01
2019-05-11T00:38:16.158Z,9.95
2019-05-11T00:40:42.009Z,9.95
2019-05-11T00:43:07.856Z,9.95
2019-05-11T00:45:33.718Z,9.95
2019-05-11T00:47:59.569Z,9.97
2019-05-11T00:50:38.167Z,9.76
2019-05-11T00:52:53.202Z,9.82
2019-05-11T00:55:19.065Z,9.92
2019-05-11T00:57:44.913Z,9.91
2019-05-11T01:00:11.889Z,9.93
2019-05-11T01:02:37.978Z,9.87
2019-05-11T01:05:04.951Z,9.86
2019-05-11T01:07:30.842Z,9.49
2019-05-11T01:09:56.661Z,9.33
2019-05-11T01:12:22.523Z,9.59
2019-05-11T01:14:48.458Z,9.75
2019-05-11T01:17:14.378Z,9.74
2019-05-11T01:19:40.223Z,9.54
2019-05-11T01:22:06.195Z,9.53
2019-05-11T01:24:32.351Z,9.46
2019-05-11T01:26:58.195Z,9.50
2019-05-11T01:29:24.061Z,9.59
2019-05-11T01:31:49.918Z,9.61
2019-05-11T01:34:15.787Z,9.67
2019-05-11T01:36:41.662Z,9.67
2019-05-11T01:39:07.508Z,9.59
2019-05-11T01:41:33.372Z,9.56
2019-05-11T01:43:59.232Z,9.50
2019-05-11T01:46:25.085Z,9.51
2019-05-11T01:48:50.977Z,9.47
2019-05-11T01:51:16.811Z,9.47
2019-05-11T01:53:42.659Z,9.49
2019-05-11T01:56:08.524Z,9.40
2019-05-11T01:58:34.422Z,9.44
2019-05-11T02:01:00.281Z,9.61
2019-05-11T02:03:26.148Z,9.68
2019-05-11T02:05:52.007Z,9.73
2019-05-11T02:08:17.870Z,9.55
2019-05-11T02:10:43.713Z,9.47
2019-05-11T02:13:09.578Z,9.46
2019-05-11T02:15:35.425Z,9.43
2019-05-11T02:18:01.321Z,9.42
2019-05-11T02:20:27.167Z,9.43
2019-05-11T02:22:53.035Z,9.42
2019-05-11T02:25:18.878Z,9.41
2019-05-11T02:27:44.749Z,9.37
2019-05-11T02:30:11.407Z,9.51
2019-05-11T02:32:37.294Z,9.41
2019-05-11T02:35:06.151Z,9.61
2019-05-11T02:37:31.998Z,9.59
2019-05-11T02:39:57.849Z,9.48
2019-05-11T02:42:23.723Z,9.38
2019-05-11T02:44:49.608Z,9.42
2019-05-11T02:47:15.445Z,9.39
2019-05-11T02:49:41.289Z,9.36
2019-05-11T02:52:08.070Z,9.39
2019-05-11T02:54:34.126Z,9.33
2019-05-11T02:56:59.990Z,9.55
2019-05-11T02:59:29.653Z,9.35
2019-05-11T03:01:53.625Z,9.28
2019-05-11T03:04:19.472Z,9.31
2019-05-11T03:06:45.334Z,9.22
2019-05-11T03:09:11.217Z,9.14
2019-05-11T03:11:54.001Z,9.12
2019-05-11T03:14:04.837Z,9.11
2019-05-11T03:16:30.700Z,9.08
2019-05-11T03:18:56.564Z,9.02
2019-05-11T03:21:22.410Z,9.07
2019-05-11T03:23:49.112Z,9.03
2019-05-11T03:26:14.963Z,9.04
2019-05-11T03:28:40.842Z,9.01
2019-05-11T03:31:06.707Z,8.92
2019-05-11T03:33:32.549Z,8.86
2019-05-11T03:35:58.413Z,8.88
2019-05-11T03:38:24.262Z,8.87
2019-05-11T03:40:50.137Z,8.71
2019-05-11T03:43:16.003Z,8.71
2019-05-11T03:45:41.842Z,8.70
2019-05-11T03:48:07.685Z,8.64
2019-05-11T03:50:33.552Z,8.61
2019-05-11T03:52:59.405Z,8.66
2019-05-11T03:55:25.301Z,8.67
2019-05-11T03:57:51.114Z,8.46
2019-05-11T04:00:17.177Z,8.42
2019-05-11T04:02:43.026Z,8.43
2019-05-11T04:05:09.217Z,8.35
2019-05-11T04:07:35.070Z,8.39
2019-05-11T04:10:00.952Z,8.33
2019-05-11T04:12:34.708Z,8.25
2019-05-11T04:14:54.611Z,8.33
2019-05-11T04:17:21.866Z,8.29
2019-05-11T04:19:48.536Z,8.18
2019-05-11T04:22:14.388Z,8.18
2019-05-11T04:24:40.261Z,8.22
2019-05-11T04:27:06.137Z,8.05
2019-05-11T04:29:31.985Z,8.07
2019-05-11T04:31:57.864Z,8.05
2019-05-11T04:34:23.744Z,8.03
2019-05-11T04:36:49.591Z,7.93
2019-05-11T04:39:15.449Z,7.89
2019-05-11T04:41:41.297Z,8.00
2019-05-11T04:44:07.149Z,7.91
2019-05-11T04:46:33.033Z,7.96
2019-05-11T04:48:58.881Z,8.04
2019-05-11T04:51:24.725Z,7.95
2019-05-11T04:53:50.611Z,8.00
2019-05-11T04:56:16.466Z,8.02
2019-05-11T04:58:42.331Z,8.08
2019-05-11T05:01:08.214Z,8.03
2019-05-11T05:03:40.728Z,8.13
2019-05-11T05:06:21.269Z,8.19
2019-05-11T05:08:29.628Z,8.26
2019-05-11T05:10:58.638Z,8.43
2019-05-11T05:13:29.228Z,8.44
2019-05-11T05:15:51.017Z,8.78
2019-05-11T05:18:16.873Z,8.61
2019-05-11T05:20:43.986Z,8.60
2019-05-11T05:23:10.091Z,8.86
2019-05-11T05:25:35.959Z,8.69
2019-05-11T05:28:02.670Z,8.61
2019-05-11T05:30:28.514Z,8.49
2019-05-11T05:32:54.395Z,8.50
2019-05-11T05:35:20.268Z,8.57
2019-05-11T05:37:46.127Z,8.58
2019-05-11T05:40:12.181Z,8.63
2019-05-11T05:42:38.153Z,8.76
2019-05-11T05:45:05.913Z,8.63
2019-05-11T05:47:31.781Z,8.70
2019-05-11T05:49:57.644Z,9.02
2019-05-11T05:52:23.507Z,8.77
2019-05-11T05:54:49.360Z,8.88
2019-05-11T05:57:15.232Z,9.01
2019-05-11T05:59:41.102Z,9.17
2019-05-11T06:02:06.957Z,9.26
2019-05-11T06:04:32.822Z,9.28
2019-05-11T06:06:58.697Z,9.36
2019-05-11T06:09:24.551Z,9.15
2019-05-11T06:11:50.398Z,9.32
2019-05-11T06:14:16.276Z,9.34
2019-05-11T06:16:42.160Z,9.40
2019-05-11T06:19:08.028Z,9.44
2019-05-11T06:21:33.869Z,9.48
2019-05-11T06:24:06.150Z,9.42
2019-05-11T06:26:27.552Z,9.38
2019-05-11T06:28:53.444Z,9.38
2019-05-11T06:31:19.294Z,9.49
2019-05-11T06:33:45.208Z,9.50
2019-05-11T06:36:11.053Z,9.50
2019-05-11T06:38:36.920Z,9.74
2019-05-11T06:41:02.773Z,10.07
2019-05-11T06:43:28.693Z,10.10
2019-05-11T06:45:54.537Z,10.39
2019-05-11T06:48:20.456Z,10.62
2019-05-11T06:50:46.372Z,10.63
2019-05-11T06:53:12.243Z,10.75
2019-05-11T06:55:38.095Z,10.94
2019-05-11T06:58:04.130Z,11.14
2019-05-11T07:00:30.049Z,11.42
2019-05-11T07:02:55.882Z,11.65
2019-05-11T07:05:21.750Z,11.90
2019-05-11T07:07:48.108Z,11.94
2019-05-11T07:10:14.377Z,12.30
2019-05-11T07:12:40.246Z,12.46
2019-05-11T07:15:06.807Z,12.70
2019-05-11T07:17:32.669Z,12.75
2019-05-11T07:19:58.543Z,12.89
2019-05-11T07:22:24.705Z,13.17
2019-05-11T07:24:50.555Z,13.24
2019-05-11T07:27:16.419Z,13.33
2019-05-11T07:29:42.306Z,13.47
2019-05-11T07:32:20.016Z,13.28
2019-05-11T07:34:38.222Z,13.74
2019-05-11T07:37:03.689Z,14.09
2019-05-11T07:39:29.542Z,14.20
2019-05-11T07:41:55.411Z,14.24
2019-05-11T07:44:35.037Z,14.39
2019-05-11T07:46:49.033Z,14.39
2019-05-11T07:49:14.889Z,14.54
2019-05-11T07:51:40.736Z,14.70
2019-05-11T07:54:08.413Z,14.78
2019-05-11T07:56:34.362Z,14.54
2019-05-11T07:59:00.215Z,14.62
2019-05-11T08:01:28.218Z,15.05
2019-05-11T08:03:53.834Z,15.00
2019-05-11T08:06:19.700Z,14.81
2019-05-11T08:08:45.552Z,14.99
2019-05-11T08:11:11.409Z,15.21
2019-05-11T08:13:38.889Z,15.35
2019-05-11T08:16:04.969Z,15.89
2019-05-11T08:18:30.818Z,15.79
2019-05-11T08:20:58.289Z,15.40
2019-05-11T08:23:24.336Z,15.46
2019-05-11T08:25:50.220Z,15.42
2019-05-11T08:28:18.189Z,15.28
2019-05-11T08:30:43.848Z,15.88
2019-05-11T08:33:09.720Z,15.36
2019-05-11T08:35:35.570Z,15.27
2019-05-11T08:38:01.426Z,15.21
2019-05-11T08:40:28.873Z,15.69
2019-05-11T08:42:54.941Z,15.31
2019-05-11T08:45:24.572Z,15.27
2019-05-11T08:47:48.736Z,14.97
2019-05-11T08:50:15.465Z,15.46
2019-05-11T08:52:41.496Z,15.18
2019-05-11T08:55:08.507Z,15.31
2019-05-11T08:57:34.514Z,15.03
2019-05-11T09:00:00.382Z,14.78
2019-05-11T09:02:27.820Z,15.44
2019-05-11T09:04:53.939Z,15.15
2019-05-11T09:07:19.800Z,15.61
2019-05-11T09:09:45.662Z,15.75
2019-05-11T09:12:11.525Z,15.30
2019-05-11T09:14:38.690Z,15.13
2019-05-11T09:17:04.717Z,14.85
2019-05-11T09:19:30.577Z,15.09
2019-05-11T09:21:58.704Z,15.61
2019-05-11T09:24:24.196Z,15.63
2019-05-11T09:26:50.068Z,15.18
2019-05-11T09:29:17.997Z,15.03
2019-05-11T09:31:44.509Z,15.09
2019-05-11T09:34:10.372Z,15.61
2019-05-11T09:36:38.525Z,15.67
2019-05-11T09:39:08.260Z,15.64
2019-05-11T09:41:33.951Z,15.52
2019-05-11T09:43:59.804Z,15.03
2019-05-11T09:46:27.751Z,14.82
2019-05-11T09:48:53.424Z,15.77
2019-05-11T09:51:19.303Z,16.08
2019-05-11T09:53:45.162Z,16.00
2019-05-11T09:56:11.031Z,15.78
2019-05-11T09:58:38.668Z,15.19
2019-05-11T10:01:04.670Z,15.31
2019-05-11T10:03:30.597Z,15.13
2019-05-11T10:05:57.954Z,15.23
2019-05-11T10:08:24.277Z,15.38
2019-05-11T10:10:52.476Z,15.07
2019-05-11T10:13:18.687Z,15.08
2019-05-11T10:15:59.297Z,15.49
2019-05-11T10:18:12.347Z,15.64
2019-05-11T10:20:39.217Z,15.69
2019-05-11T10:23:05.253Z,15.25
2019-05-11T10:25:31.133Z,15.27
2019-05-11T10:27:57.998Z,15.00
2019-05-11T10:30:23.957Z,14.76
2019-05-11T10:32:50.150Z,15.23
2019-05-11T10:35:18.172Z,15.47
2019-05-11T10:37:43.877Z,15.38
2019-05-11T10:40:12.075Z,15.88
2019-05-11T10:42:38.045Z,15.74
2019-05-11T10:45:05.565Z,15.07
2019-05-11T10:47:31.389Z,15.27
2019-05-11T10:49:57.896Z,14.81
2019-05-11T10:52:24.026Z,15.08
2019-05-11T10:54:49.938Z,15.35
2019-05-11T10:57:15.785Z,15.31
2019-05-11T10:59:41.741Z,14.94
2019-05-11T11:02:08.098Z,14.84
2019-05-11T11:04:34.308Z,15.23
2019-05-11T11:07:00.314Z,15.35
2019-05-11T11:09:28.162Z,14.81
2019-05-11T11:11:54.208Z,14.97
2019-05-11T11:14:20.077Z,15.52
2019-05-11T11:16:47.846Z,15.29
2019-05-11T11:19:13.682Z,14.98
2019-05-11T11:21:39.575Z,15.18
2019-05-11T11:24:07.500Z,15.45
2019-05-11T11:26:33.179Z,15.05
2019-05-11T11:28:59.050Z,15.32
2019-05-11T11:31:24.905Z,15.63
2019-05-11T11:33:50.750Z,15.60
2019-05-11T11:36:17.957Z,15.82
2019-05-11T11:38:43.970Z,15.64
2019-05-11T11:41:09.826Z,15.74
2019-05-11T11:43:37.640Z,15.37
2019-05-11T11:46:03.471Z,15.63
2019-05-11T11:48:29.353Z,15.32
2019-05-11T11:50:55.201Z,15.59
2019-05-11T11:53:21.069Z,15.55
2019-05-11T11:55:48.179Z,15.78
2019-05-11T11:58:14.169Z,16.03
2019-05-11T12:00:40.097Z,15.78
2019-05-11T12:03:08.009Z,15.52
2019-05-11T12:05:33.821Z,15.21
2019-05-11T12:07:59.698Z,15.38
2019-05-11T12:10:25.578Z,15.10
2019-05-11T12:12:51.433Z,15.10
2019-05-11T12:15:17.820Z,15.81
2019-05-11T12:17:43.748Z,15.18
2019-05-11T12:20:09.692Z,14.99
2019-05-11T12:22:35.579Z,15.44
2019-05-11T12:25:01.442Z,15.96
2019-05-11T12:27:28.692Z,16.19
2019-05-11T12:29:54.802Z,15.40
2019-05-11T12:32:23.422Z,15.33
2019-05-11T12:34:49.304Z,15.48
2019-05-11T12:37:15.239Z,16.07
2019-05-11T12:39:41.087Z,16.07
2019-05-11T12:42:08.593Z,15.59
2019-05-11T12:44:34.602Z,15.17
2019-05-11T12:47:00.469Z,15.38
2019-05-11T12:49:28.668Z,15.51
2019-05-11T12:51:54.173Z,15.65
2019-05-11T12:54:20.033Z,15.74
2019-05-11T12:56:45.888Z,15.97
2019-05-11T12:59:11.754Z,15.95
2019-05-11T13:01:38.098Z,15.51
2019-05-11T13:04:04.168Z,15.11
2019-05-11T13:06:30.043Z,15.15
2019-05-11T13:08:55.898Z,15.38
2019-05-11T13:11:21.757Z,15.76
2019-05-11T13:13:48.361Z,15.67
2019-05-11T13:16:14.585Z,15.21
2019-05-11T13:18:40.443Z,15.04
2019-05-11T13:21:07.713Z,15.57
2019-05-11T13:23:33.660Z,15.66
2019-05-11T13:25:59.529Z,15.90
2019-05-11T13:28:25.379Z,15.50
2019-05-11T13:30:51.246Z,15.71
2019-05-11T13:33:19.076Z,15.62
2019-05-11T13:35:45.006Z,15.41
2019-05-11T13:38:10.875Z,15.58
2019-05-11T13:40:38.178Z,15.74
2019-05-11T13:43:04.386Z,16.02
2019-05-11T13:45:30.943Z,15.56
2019-05-11T13:47:59.227Z,15.30
2019-05-11T13:50:24.405Z,15.56
2019-05-11T13:52:50.288Z,16.01
2019-05-11T13:55:17.891Z,15.95
2019-05-11T13:57:43.919Z,15.95
2019-05-11T14:00:10.185Z,15.84
2019-05-11T14:02:37.992Z,15.60
2019-05-11T14:05:06.108Z,15.85
2019-05-11T14:07:31.966Z,15.68
2019-05-11T14:09:58.893Z,15.84
2019-05-11T14:12:24.886Z,16.22
2019-05-11T14:14:50.746Z,16.20
2019-05-11T14:17:18.675Z,16.48
2019-05-11T14:19:44.400Z,16.07
2019-05-11T14:22:10.267Z,16.10
2019-05-11T14:24:37.607Z,16.18
2019-05-11T14:27:03.596Z,16.25
2019-05-11T14:29:29.461Z,16.52
2019-05-11T14:31:55.304Z,15.97
2019-05-11T14:34:21.677Z,16.06
2019-05-11T14:36:48.139Z,15.47
2019-05-11T14:39:13.985Z,15.31
2019-05-11T14:41:39.849Z,15.38
2019-05-11T14:44:05.789Z,15.76
2019-05-11T14:46:31.696Z,15.93
2019-05-11T14:48:58.547Z,15.90
2019-05-11T14:51:24.416Z,15.74
2019-05-11T14:53:50.299Z,15.62
2019-05-11T14:56:18.758Z,15.71
2019-05-11T14:58:43.906Z,15.54
2019-05-11T15:01:09.764Z,15.54
2019-05-11T15:03:37.861Z,15.64
2019-05-11T15:06:03.390Z,15.54
2019-05-11T15:08:29.249Z,15.39
2019-05-11T15:10:55.158Z,15.38
2019-05-11T15:13:21.054Z,15.52
2019-05-11T15:15:48.745Z,15.66
2019-05-11T15:18:14.657Z,15.48
2019-05-11T15:20:40.522Z,15.42
2019-05-11T15:23:08.619Z,15.17
2019-05-11T15:25:34.199Z,15.29
2019-05-11T15:28:00.054Z,15.42
2019-05-11T15:30:25.908Z,15.36
2019-05-11T15:32:51.759Z,15.68
2019-05-11T15:35:18.693Z,15.53
2019-05-11T15:37:44.888Z,15.48
2019-05-11T15:40:15.819Z,15.44
2019-05-11T15:42:42.024Z,15.49
2019-05-11T15:45:10.612Z,15.52
2019-05-11T15:47:37.734Z,15.57
2019-05-11T15:50:08.140Z,15.44
2019-05-11T15:52:33.741Z,15.28
2019-05-11T15:54:59.598Z,15.11
2019-05-11T15:57:25.484Z,15.09
2019-05-11T15:59:51.358Z,15.18
2019-05-11T16:02:17.977Z,15.14
2019-05-11T16:04:43.917Z,14.97
2019-05-11T16:07:09.792Z,14.90
2019-05-11T16:09:37.886Z,14.86
2019-05-11T16:12:03.427Z,14.89
2019-05-11T16:14:29.293Z,14.79
2019-05-11T16:16:55.204Z,14.62
2019-05-11T16:19:21.074Z,14.72
2019-05-11T16:21:46.939Z,14.77
2019-05-11T16:24:12.786Z,14.73
2019-05-11T16:26:38.990Z,14.75
2019-05-11T16:29:04.834Z,14.78
2019-05-11T16:31:30.704Z,14.77
2019-05-11T16:33:58.762Z,14.63
2019-05-11T16:36:24.348Z,14.52
2019-05-11T16:38:50.413Z,14.46
2019-05-11T16:41:17.897Z,14.55
2019-05-11T16:43:44.045Z,14.36
2019-05-11T16:46:09.897Z,14.53
2019-05-11T16:48:38.127Z,14.44
2019-05-11T16:51:03.529Z,14.51
2019-05-11T16:53:29.412Z,14.39
2019-05-11T16:55:57.595Z,14.16
2019-05-11T16:58:23.131Z,14.20
2019-05-11T17:00:49.324Z,14.13
2019-05-11T17:03:15.273Z,14.08
2019-05-11T17:05:41.146Z,14.05
2019-05-11T17:08:08.114Z,13.97
2019-05-11T17:10:34.071Z,14.00
2019-05-11T17:12:59.924Z,13.87
2019-05-11T17:15:25.780Z,13.87
2019-05-11T17:17:51.636Z,13.92
2019-05-11T17:20:18.742Z,13.79
2019-05-11T17:22:44.948Z,13.87
2019-05-11T17:25:10.806Z,13.69
2019-05-11T17:27:37.691Z,13.64
2019-05-11T17:30:08.637Z,13.70
2019-05-11T17:32:35.105Z,13.61
2019-05-11T17:35:01.183Z,13.56
2019-05-11T17:37:28.603Z,13.44
2019-05-11T17:39:54.708Z,13.43
2019-05-11T17:42:20.585Z,13.40
2019-05-11T17:44:48.411Z,13.45
2019-05-11T17:47:14.209Z,13.29
2019-05-11T17:49:40.091Z,13.10
2019-05-11T17:52:08.011Z,13.09
2019-05-11T17:54:33.692Z,13.06
2019-05-11T17:56:59.590Z,12.96
2019-05-11T17:59:27.886Z,12.88
2019-05-11T18:01:53.150Z,12.94
2019-05-11T18:04:19.015Z,12.76
2019-05-11T18:06:44.873Z,12.81
2019-05-11T18:09:10.734Z,12.91
2019-05-11T18:11:38.058Z,12.76
2019-05-11T18:14:04.391Z,12.81
2019-05-11T18:16:30.243Z,12.56
2019-05-11T18:18:58.335Z,12.56
2019-05-11T18:21:23.908Z,12.46
2019-05-11T18:23:49.773Z,12.44
2019-05-11T18:26:17.938Z,12.44
2019-05-11T18:28:43.409Z,12.44
2019-05-11T18:31:09.270Z,12.50
2019-05-11T18:33:35.166Z,12.30
2019-05-11T18:36:01.019Z,12.25
2019-05-11T18:38:27.625Z,12.15
2019-05-11T18:40:53.674Z,12.11
2019-05-11T18:43:19.541Z,11.99
2019-05-11T18:45:45.402Z,12.02
2019-05-11T18:48:11.295Z,11.86
2019-05-11T18:50:38.409Z,11.96
2019-05-11T18:53:04.517Z,11.97
2019-05-11T18:55:30.484Z,11.74
2019-05-11T18:57:58.079Z,11.81
2019-05-11T19:00:24.016Z,11.78
2019-05-11T19:02:50.098Z,11.76
2019-05-11T19:05:18.066Z,11.56
2019-05-11T19:07:43.806Z,11.48
2019-05-11T19:10:09.873Z,11.41
2019-05-11T19:12:37.699Z,11.41
2019-05-11T19:15:07.726Z,11.38
2019-05-11T19:17:33.757Z,11.29
2019-05-11T19:19:59.648Z,11.37
2019-05-11T19:22:25.537Z,11.31
2019-05-11T19:24:51.390Z,11.29
2019-05-11T19:27:18.567Z,11.24
2019-05-11T19:29:44.629Z,11.18
2019-05-11T19:32:11.149Z,11.23
2019-05-11T19:34:38.777Z,11.23
2019-05-11T19:37:04.846Z,11.16
2019-05-11T19:39:30.709Z,10.89
2019-05-11T19:41:58.098Z,10.90
2019-05-11T19:44:23.976Z,10.87
2019-05-11T19:46:49.843Z,10.88
2019-05-11T19:49:15.713Z,10.92
2019-05-11T19:51:42.516Z,10.84
2019-05-11T19:54:08.627Z,10.80
2019-05-11T19:56:34.578Z,10.65
2019-05-11T19:59:00.437Z,10.61
2019-05-11T20:01:27.928Z,10.63
2019-05-11T20:03:53.993Z,10.54
2019-05-11T20:06:19.854Z,10.61
2019-05-11T20:08:45.757Z,10.42
2019-05-11T20:11:11.617Z,10.42
2019-05-11T20:13:38.811Z,10.40
2019-05-11T20:16:04.890Z,10.40
2019-05-11T20:18:30.766Z,10.48
2019-05-11T20:20:56.730Z,10.34
2019-05-11T20:23:22.594Z,10.27
2019-05-11T20:25:48.602Z,10.28
2019-05-11T20:28:14.478Z,10.18
2019-05-11T20:30:40.344Z,10.13
2019-05-11T20:33:08.568Z,10.18
2019-05-11T20:35:34.033Z,10.10
2019-05-11T20:37:59.928Z,10.13
2019-05-11T20:40:25.801Z,10.05
2019-05-11T20:42:51.694Z,10.06
2019-05-11T20:45:18.524Z,10.00
2019-05-11T20:47:44.908Z,9.93
2019-05-11T20:50:10.913Z,9.86
2019-05-11T20:52:38.966Z,9.88
2019-05-11T20:55:05.436Z,9.81
2019-05-11T20:57:31.296Z,9.86
2019-05-11T20:59:57.573Z,10.05
2019-05-11T21:02:23.509Z,9.78
2019-05-11T21:04:49.399Z,9.74
2019-05-11T21:07:15.252Z,9.74
2019-05-11T21:09:41.129Z,9.57
2019-05-11T21:12:08.184Z,9.57
2019-05-11T21:14:34.134Z,9.57
2019-05-11T21:17:00.021Z,9.54
2019-05-11T21:19:28.169Z,9.53
2019-05-11T21:21:54.033Z,9.61
2019-05-11T21:24:19.998Z,9.52
2019-05-11T21:26:47.883Z,9.44
2019-05-11T21:29:13.604Z,9.51
2019-05-11T21:31:40.756Z,9.48
2019-05-11T21:34:08.204Z,9.36
2019-05-11T21:36:34.181Z,9.33
2019-05-11T21:39:00.047Z,9.21
2019-05-11T21:41:28.223Z,9.20
2019-05-11T21:43:53.667Z,9.16
2019-05-11T21:46:19.574Z,9.03
2019-05-11T21:48:47.668Z,9.03
2019-05-11T21:51:13.186Z,9.09
2019-05-11T21:53:39.219Z,9.01
2019-05-11T21:56:05.080Z,8.84
2019-05-11T21:58:30.938Z,8.85
2019-05-11T22:00:56.991Z,8.92
2019-05-11T22:03:22.851Z,8.98
2019-05-11T22:05:48.714Z,8.92
2019-05-11T22:08:14.592Z,8.90
2019-05-11T22:10:40.441Z,8.84
2019-05-11T22:13:06.322Z,8.94
2019-05-11T22:15:32.170Z,8.96
2019-05-11T22:17:58.531Z,8.76
2019-05-11T22:20:24.602Z,8.70
2019-05-11T22:22:50.462Z,8.61
2019-05-11T22:25:18.378Z,8.74
2019-05-11T22:27:44.069Z,8.66
2019-05-11T22:30:10.529Z,8.59
2019-05-11T22:32:38.372Z,8.54
2019-05-11T22:35:08.267Z,8.58
2019-05-11T22:37:34.104Z,8.49
2019-05-11T22:39:59.977Z,8.50
2019-05-11T22:42:28.029Z,8.53
2019-05-11T22:44:53.595Z,8.53
2019-05-11T22:47:19.485Z,8.50
2019-05-11T22:49:45.323Z,8.41
2019-05-11T22:52:11.182Z,8.32
2019-05-11T22:54:38.315Z,8.66
2019-05-11T22:57:04.380Z,8.45
2019-05-11T22:59:30.235Z,8.13
2019-05-11T23:01:56.084Z,8.16
2019-05-11T23:04:21.943Z,8.06
2019-05-11T23:06:47.853Z,8.04
2019-05-11T23:09:13.643Z,7.91
2019-05-11T23:11:39.517Z,8.03
2019-05-11T23:14:05.396Z,8.06
2019-05-11T23:16:31.213Z,8.28
2019-05-11T23:18:57.320Z,8.62
2019-05-11T23:21:23.169Z,8.63
2019-05-11T23:23:49.026Z,8.59
2019-05-11T23:26:14.878Z,8.62
2019-05-11T23:28:40.730Z,8.31
2019-05-11T23:31:08.901Z,8.05
2019-05-11T23:33:34.393Z,8.07
2019-05-11T23:36:00.300Z,8.12
2019-05-11T23:38:28.134Z,8.01
2019-05-11T23:40:53.922Z,8.07
2019-05-11T23:43:19.881Z,8.00
2019-05-11T23:45:45.793Z,7.93
2019-05-11T23:48:11.646Z,7.80
2019-05-11T23:50:38.867Z,7.77
2019-05-11T23:53:06.826Z,7.83
2019-05-11T23:55:32.658Z,7.84
2019-05-11T23:57:58.506Z,7.73
